Аэропорт: Брянск. Брянск

ICAO: UUBP

METAR:
2018/09/23 11:00
UUBP 231100Z 26004MPS 9999 BKN025 13/07 Q1012 R16/CLRD70 NOSIG RMK QFE741/0988
METAR:
2010/09/15 10:45
TAF TAF UUBP 151045Z 1512/1524 18005G10MPS 9999 SCT030